Time;durP1;ratioP1;P1;durP2;ratioP2;P2;SDS_P1;SDS_P2;PMS_P1;PMS_P2;Temp;Humidity;BMP_temperature;BMP_pressure;BME280_temperature;BME280_humidity;BME280_pressure;Samples;Min_cycle;Max_cycle;Signal;HPM_P1;HPM_P2
2022/09/16 00:01:21;;;;;;;;;;;;;;;11.26;100.00;101070.31;5322461;27;20007;-78
2022/09/16 00:03:53;;;;;;;;;;;;;;;11.24;100.00;101072.28;5318796;27;19928;-78
2022/09/16 00:06:26;;;;;;;;;;;;;;;11.14;100.00;101074.94;5316471;27;19919;-78
2022/09/16 00:08:59;;;;;;;;;;;;;;;11.16;100.00;101070.31;5318398;27;19926;-78
2022/09/16 00:11:33;;;;;;;;;;;;;;;11.29;100.00;101075.34;5318430;27;20434;-78
2022/09/16 00:14:04;;;;;;;;;;;;;;;11.38;100.00;101073.66;5317364;27;19916;-78
2022/09/16 00:16:36;;;;;;;;;;;;;;;11.51;100.00;101071.53;5317958;27;19927;-78
2022/09/16 00:19:07;;;;;;;;;;;;;;;11.62;100.00;101068.69;5316547;27;19966;-78
2022/09/16 00:21:39;;;;;;;;;;;;;;;11.65;100.00;101065.75;5318559;27;19920;-78
2022/09/16 00:24:12;;;;;;;;;;;;;;;11.66;100.00;101063.94;5319516;27;20383;-78
2022/09/16 00:26:44;;;;;;;;;;;;;;;11.70;100.00;101059.97;5317493;27;20300;-78
2022/09/16 00:29:15;;;;;;;;;;;;;;;11.71;100.00;101058.97;5318854;27;19920;-78
2022/09/16 00:31:46;;;;;;;;;;;;;;;11.71;100.00;101062.50;5317342;27;19943;-78
2022/09/16 00:34:18;;;;;;;;;;;;;;;11.70;100.00;101059.97;5317568;27;19924;-78
2022/09/16 00:36:49;;;;;;;;;;;;;;;11.65;100.00;101062.25;5318277;27;20391;-78
2022/09/16 00:39:20;;;;;;;;;;;;;;;11.61;100.00;101066.19;5318229;27;19927;-78
2022/09/16 00:41:51;;;;;;;;;;;;;;;11.56;100.00;101055.09;5315308;27;20018;-78
2022/09/16 00:44:41;;;;;;;;;;;;;;;11.47;100.00;101054.97;5316750;27;20388;-78
2022/09/16 00:50:37;;;;;;;;;;;;;;;11.15;100.00;101047.28;5319473;27;19920;-78
2022/09/16 00:53:11;;;;;;;;;;;;;;;11.04;100.00;101044.72;5314982;27;19916;-78
2022/09/16 00:55:43;;;;;;;;;;;;;;;10.97;100.00;101047.13;5316051;27;19920;-78
2022/09/16 00:58:20;;;;;;;;;;;;;;;10.97;100.00;101045.31;5318784;27;19923;-78
2022/09/16 01:00:55;;;;;;;;;;;;;;;11.00;100.00;101048.69;5316521;27;19916;-78
2022/09/16 01:03:27;;;;;;;;;;;;;;;11.01;100.00;101048.53;5321252;27;20379;-78
2022/09/16 01:05:59;;;;;;;;;;;;;;;10.87;100.00;101043.59;5318841;27;20042;-79
2022/09/16 01:08:30;;;;;;;;;;;;;;;10.71;100.00;101049.47;5320206;27;20424;-79
2022/09/16 01:11:02;;;;;;;;;;;;;;;10.63;100.00;101039.50;5320687;27;20276;-79
2022/09/16 01:13:33;;;;;;;;;;;;;;;10.62;100.00;101036.97;5319416;27;19931;-79
2022/09/16 01:16:20;;;;;;;;;;;;;;;10.65;100.00;101039.38;5319930;27;20291;-78
2022/09/16 01:18:54;;;;;;;;;;;;;;;10.63;100.00;101044.84;5320111;27;19916;-78
2022/09/16 01:21:28;;;;;;;;;;;;;;;10.59;100.00;101038.94;5319501;27;19927;-78
2022/09/16 01:24:11;;;;;;;;;;;;;;;10.49;100.00;101038.06;5321712;27;19920;-79
2022/09/16 01:27:01;;;;;;;;;;;;;;;10.39;100.00;101048.72;5320751;27;20403;-78
2022/09/16 01:29:47;;;;;;;;;;;;;;;10.37;100.00;101047.16;5318609;27;19923;-79
2022/09/16 01:32:27;;;;;;;;;;;;;;;10.37;100.00;101041.84;5319967;27;19920;-79
2022/09/16 01:35:01;;;;;;;;;;;;;;;10.35;100.00;101049.13;5318438;27;19919;-78
2022/09/16 01:37:42;;;;;;;;;;;;;;;10.38;100.00;101048.88;5318962;27;20392;-78
2022/09/16 01:40:31;;;;;;;;;;;;;;;10.34;100.00;101042.97;5321056;27;20400;-79
2022/09/16 01:43:14;;;;;;;;;;;;;;;10.31;100.00;101037.00;5318281;27;19928;-79
2022/09/16 01:45:55;;;;;;;;;;;;;;;10.32;100.00;101036.91;5319605;27;19924;-78
2022/09/16 01:48:33;;;;;;;;;;;;;;;10.33;100.00;101043.09;5329008;27;20032;-79
2022/09/16 01:51:13;;;;;;;;;;;;;;;10.30;100.00;101036.16;5319223;27;19919;-79
2022/09/16 01:53:48;;;;;;;;;;;;;;;10.26;100.00;101031.25;5319325;27;19924;-78
2022/09/16 01:56:25;;;;;;;;;;;;;;;10.18;100.00;101030.09;5319079;27;19931;-78
2022/09/16 01:59:00;;;;;;;;;;;;;;;10.07;100.00;101038.19;5319123;27;20062;-78
2022/09/16 02:01:52;;;;;;;;;;;;;;;9.98;100.00;101047.00;5329071;27;19916;-78
2022/09/16 02:04:35;;;;;;;;;;;;;;;9.94;100.00;101045.56;5318396;27;19950;-78
2022/09/16 02:07:09;;;;;;;;;;;;;;;9.93;100.00;101049.22;5323802;27;20295;-79
2022/09/16 02:09:44;;;;;;;;;;;;;;;9.92;100.00;101055.50;5322039;27;19916;-78
2022/09/16 02:12:20;;;;;;;;;;;;;;;10.00;100.00;101053.88;5321732;27;19920;-78
2022/09/16 02:14:54;;;;;;;;;;;;;;;10.06;100.00;101055.16;5320691;27;19946;-78
2022/09/16 02:17:28;;;;;;;;;;;;;;;10.05;100.00;101053.50;5323554;27;19961;-79
2022/09/16 02:19:59;;;;;;;;;;;;;;;10.07;100.00;101056.84;5321017;27;19916;-78
2022/09/16 02:22:33;;;;;;;;;;;;;;;10.05;100.00;101053.50;5320133;27;19919;-79
2022/09/16 02:25:07;;;;;;;;;;;;;;;10.12;100.00;101056.47;5318864;27;20011;-79
2022/09/16 02:27:39;;;;;;;;;;;;;;;10.27;100.00;101052.44;5319051;27;19916;-79
2022/09/16 02:30:15;;;;;;;;;;;;;;;10.35;100.00;101055.31;5319303;27;20306;-79
2022/09/16 02:32:58;;;;;;;;;;;;;;;10.31;100.00;101050.34;5320136;27;20388;-78
2022/09/16 02:35:30;;;;;;;;;;;;;;;10.40;100.00;101042.41;5317680;27;19916;-78
2022/09/16 02:38:05;;;;;;;;;;;;;;;10.46;100.00;101058.84;5318202;27;19920;-78
2022/09/16 02:40:40;;;;;;;;;;;;;;;10.44;100.00;101048.31;5319119;27;20011;-78
2022/09/16 02:43:12;;;;;;;;;;;;;;;10.55;100.00;101048.22;5320829;27;20011;-78
2022/09/16 02:46:06;;;;;;;;;;;;;;;10.62;100.00;101048.47;5317273;27;19928;-78
2022/09/16 02:48:41;;;;;;;;;;;;;;;10.58;100.00;101045.25;5319441;27;19923;-79
2022/09/16 02:51:22;;;;;;;;;;;;;;;10.53;100.00;101043.97;5316426;27;19969;-79
2022/09/16 02:54:18;;;;;;;;;;;;;;;10.47;100.00;101052.53;5318573;27;19973;-78
2022/09/16 02:56:50;;;;;;;;;;;;;;;10.37;100.00;101053.34;5315291;27;19920;-79
2022/09/16 02:59:22;;;;;;;;;;;;;;;10.28;100.00;101051.47;5322448;27;19927;-79
2022/09/16 03:01:53;;;;;;;;;;;;;;;10.26;100.00;101045.44;5317257;27;20429;-79
2022/09/16 03:04:25;;;;;;;;;;;;;;;10.29;100.00;101044.28;5318890;27;19920;-79
2022/09/16 03:06:56;;;;;;;;;;;;;;;10.37;100.00;101049.84;5319099;27;19916;-78
2022/09/16 03:09:28;;;;;;;;;;;;;;;10.38;100.00;101055.03;5322573;27;19920;-78
2022/09/16 03:12:00;;;;;;;;;;;;;;;10.35;100.00;101046.47;5321405;27;19920;-78
2022/09/16 03:14:49;;;;;;;;;;;;;;;10.28;100.00;101035.47;5321231;27;19916;-78
2022/09/16 03:17:21;;;;;;;;;;;;;;;10.37;100.00;101032.00;5321442;27;19920;-78
2022/09/16 03:20:06;;;;;;;;;;;;;;;10.43;100.00;101033.31;5321140;27;19938;-78
2022/09/16 03:22:47;;;;;;;;;;;;;;;10.52;100.00;101042.31;5319369;27;19924;-78
2022/09/16 03:25:38;;;;;;;;;;;;;;;10.58;100.00;101039.91;5334540;27;19916;-78
2022/09/16 03:28:23;;;;;;;;;;;;;;;10.52;100.00;101031.66;5319693;27;20347;-78
2022/09/16 03:31:09;;;;;;;;;;;;;;;10.50;100.00;101042.44;5318884;27;19935;-78
2022/09/16 03:33:45;;;;;;;;;;;;;;;10.50;100.00;101045.09;5320278;27;20018;-78
2022/09/16 03:36:21;;;;;;;;;;;;;;;10.46;100.00;101037.50;5318743;27;19920;-78
2022/09/16 03:38:53;;;;;;;;;;;;;;;10.37;100.00;101045.34;5318502;27;19920;-78
2022/09/16 03:41:27;;;;;;;;;;;;;;;10.31;100.00;101039.66;5316013;27;20751;-78
2022/09/16 03:43:58;;;;;;;;;;;;;;;10.22;100.00;101041.34;5349432;27;19973;-78
2022/09/16 03:46:30;;;;;;;;;;;;;;;10.18;100.00;101031.91;5318407;27;19924;-78
2022/09/16 03:49:01;;;;;;;;;;;;;;;10.13;100.00;101035.00;5318402;27;19924;-78
2022/09/16 03:51:33;;;;;;;;;;;;;;;10.14;100.00;101038.50;5316698;27;19924;-78
2022/09/16 03:54:04;;;;;;;;;;;;;;;10.08;100.00;101037.22;5318562;27;21174;-78
2022/09/16 03:56:35;;;;;;;;;;;;;;;10.05;100.00;101037.50;5319063;27;19931;-78
2022/09/16 03:59:06;;;;;;;;;;;;;;;9.90;100.00;101034.34;5317957;27;19920;-78
2022/09/16 04:01:38;;;;;;;;;;;;;;;9.90;100.00;101036.16;5316495;27;19916;-78
2022/09/16 04:04:09;;;;;;;;;;;;;;;10.02;100.00;101029.75;5320635;27;19920;-78
2022/09/16 04:06:40;;;;;;;;;;;;;;;10.11;100.00;101042.28;5320609;27;19927;-78
2022/09/16 04:09:12;;;;;;;;;;;;;;;10.07;100.00;101034.69;5321247;27;19920;-78
2022/09/16 04:11:43;;;;;;;;;;;;;;;10.05;100.00;101034.84;5323273;27;20277;-78
2022/09/16 04:14:15;;;;;;;;;;;;;;;10.05;100.00;101034.00;5320797;27;19916;-78
2022/09/16 04:16:46;;;;;;;;;;;;;;;10.07;100.00;101032.88;5323839;27;19964;-77
2022/09/16 04:19:17;;;;;;;;;;;;;;;10.08;100.00;101042.56;5320398;27;19924;-78
2022/09/16 04:21:48;;;;;;;;;;;;;;;10.01;100.00;101044.91;5322435;27;20030;-78
2022/09/16 04:24:20;;;;;;;;;;;;;;;9.97;100.00;101045.31;5322970;27;19927;-78
2022/09/16 04:26:51;;;;;;;;;;;;;;;9.98;100.00;101045.19;5321437;27;19923;-78
2022/09/16 04:29:22;;;;;;;;;;;;;;;10.10;100.00;101045.94;5319193;27;19924;-78
2022/09/16 04:31:54;;;;;;;;;;;;;;;10.11;100.00;101046.78;5319833;27;19916;-78
2022/09/16 04:34:25;;;;;;;;;;;;;;;10.08;100.00;101050.56;5322427;27;19975;-78
2022/09/16 04:36:57;;;;;;;;;;;;;;;10.19;100.00;101055.78;5330157;27;19922;-78
2022/09/16 04:39:29;;;;;;;;;;;;;;;10.25;100.00;101064.22;5321080;27;20026;-78
2022/09/16 04:42:00;;;;;;;;;;;;;;;10.26;100.00;101063.25;5320827;27;19926;-78
2022/09/16 04:44:31;;;;;;;;;;;;;;;10.29;100.00;101058.50;5320514;27;19928;-78
2022/09/16 04:47:03;;;;;;;;;;;;;;;10.27;100.00;101052.44;5320226;27;19970;-78
2022/09/16 04:49:34;;;;;;;;;;;;;;;10.23;100.00;101046.53;5320033;27;19923;-78
2022/09/16 04:52:05;;;;;;;;;;;;;;;10.23;100.00;101033.19;5318709;27;19920;-79
2022/09/16 04:54:36;;;;;;;;;;;;;;;10.23;100.00;101030.53;5321951;27;19923;-78
2022/09/16 04:57:08;;;;;;;;;;;;;;;10.22;100.00;101034.19;5317861;27;20347;-78
2022/09/16 04:59:39;;;;;;;;;;;;;;;10.19;100.00;101041.63;5320236;27;19916;-78
2022/09/16 05:02:10;;;;;;;;;;;;;;;10.17;100.00;101035.59;5321325;27;20285;-78
2022/09/16 05:04:41;;;;;;;;;;;;;;;10.12;100.00;101040.47;5323583;27;19935;-77
2022/09/16 05:07:13;;;;;;;;;;;;;;;10.09;100.00;101035.41;5321646;27;19920;-78
2022/09/16 05:09:44;;;;;;;;;;;;;;;10.01;100.00;101044.06;5327945;27;19951;-78
2022/09/16 05:12:15;;;;;;;;;;;;;;;9.92;100.00;101036.88;5324667;27;19924;-78
2022/09/16 05:14:46;;;;;;;;;;;;;;;9.86;100.00;101043.56;5323448;27;20323;-78
2022/09/16 05:17:18;;;;;;;;;;;;;;;9.81;100.00;101045.78;5320085;27;20617;-78
2022/09/16 05:19:49;;;;;;;;;;;;;;;9.84;100.00;101043.72;5320667;27;20334;-78
2022/09/16 05:22:20;;;;;;;;;;;;;;;9.88;100.00;101046.94;5324112;27;19924;-77
2022/09/16 05:24:51;;;;;;;;;;;;;;;9.92;100.00;101055.50;5323381;27;19920;-78
2022/09/16 05:27:23;;;;;;;;;;;;;;;9.98;100.00;101063.81;5315475;27;20624;-79
2022/09/16 05:29:54;;;;;;;;;;;;;;;10.12;100.00;101064.47;5321193;27;19920;-79
2022/09/16 05:32:26;;;;;;;;;;;;;;;10.29;100.00;101049.63;5318041;27;20360;-79
2022/09/16 05:34:57;;;;;;;;;;;;;;;10.48;100.00;101054.22;5321006;27;20415;-79
2022/09/16 05:37:28;;;;;;;;;;;;;;;10.64;100.00;101061.69;5317394;27;19973;-79
2022/09/16 05:40:00;;;;;;;;;;;;;;;10.76;100.00;101057.91;5318590;27;19978;-79
2022/09/16 05:42:31;;;;;;;;;;;;;;;10.98;100.00;101063.00;5319509;27;19916;-78
2022/09/16 05:45:03;;;;;;;;;;;;;;;11.11;100.00;101060.03;5318076;27;19924;-78
2022/09/16 05:47:36;;;;;;;;;;;;;;;11.16;100.00;101056.97;5319716;27;30910;-78
2022/09/16 05:50:07;;;;;;;;;;;;;;;11.20;100.00;101053.00;5310217;27;19917;-79
2022/09/16 05:52:38;;;;;;;;;;;;;;;11.24;100.00;101053.59;5315774;27;20104;-78
2022/09/16 05:55:09;;;;;;;;;;;;;;;11.21;100.00;101054.72;5315483;27;19930;-79
2022/09/16 05:57:41;;;;;;;;;;;;;;;11.26;100.00;101056.97;5311468;27;20295;-79
2022/09/16 06:00:13;;;;;;;;;;;;;;;11.31;100.00;101054.72;5319008;27;19927;-79
2022/09/16 06:02:45;;;;;;;;;;;;;;;11.39;100.00;101056.66;5322815;27;20350;-79
2022/09/16 06:05:17;;;;;;;;;;;;;;;11.35;100.00;101051.59;5317614;27;19924;-79
2022/09/16 06:07:48;;;;;;;;;;;;;;;11.29;100.00;101052.19;5318173;27;19923;-79
2022/09/16 06:10:19;;;;;;;;;;;;;;;11.30;100.00;101056.53;5319086;27;19926;-79
2022/09/16 06:12:50;;;;;;;;;;;;;;;11.41;100.00;101060.88;5318688;27;19920;-79
2022/09/16 06:15:22;;;;;;;;;;;;;;;11.48;100.00;101061.13;5321978;27;19924;-79
2022/09/16 06:17:53;;;;;;;;;;;;;;;11.56;100.00;101065.78;5323481;27;19927;-79
2022/09/16 06:20:24;;;;;;;;;;;;;;;11.60;100.00;101054.66;5320517;27;19958;-79
2022/09/16 06:22:56;;;;;;;;;;;;;;;11.68;100.00;101068.16;5314777;27;19923;-79
2022/09/16 06:25:28;;;;;;;;;;;;;;;11.78;100.00;101075.28;5314626;27;20261;-79
2022/09/16 06:27:59;;;;;;;;;;;;;;;11.79;100.00;101072.47;5319334;27;19924;-79
2022/09/16 06:30:30;;;;;;;;;;;;;;;11.73;100.00;101073.91;5317295;27;19989;-79
2022/09/16 06:33:01;;;;;;;;;;;;;;;11.81;100.00;101075.00;5319083;27;19919;-79
2022/09/16 06:35:33;;;;;;;;;;;;;;;11.86;100.00;101078.91;5321711;27;19960;-79
2022/09/16 06:38:05;;;;;;;;;;;;;;;12.01;100.00;101075.81;5323461;27;20438;-79
2022/09/16 06:40:36;;;;;;;;;;;;;;;12.05;100.00;101079.88;5323224;27;19920;-79
2022/09/16 06:43:07;;;;;;;;;;;;;;;12.04;100.00;101078.19;5322013;27;19935;-79
2022/09/16 06:45:38;;;;;;;;;;;;;;;12.17;100.00;101078.72;5321953;27;20019;-79
2022/09/16 06:48:10;;;;;;;;;;;;;;;12.30;100.00;101083.72;5322656;27;19993;-79
2022/09/16 06:50:41;;;;;;;;;;;;;;;12.30;100.00;101087.22;5318474;27;20269;-79
2022/09/16 06:53:12;;;;;;;;;;;;;;;12.23;100.00;101082.63;5334796;27;19945;-79
2022/09/16 06:55:44;;;;;;;;;;;;;;;12.21;100.00;101077.41;5344632;27;20416;-79
2022/09/16 06:58:15;;;;;;;;;;;;;;;12.14;100.00;101080.84;5327930;27;20356;-79
2022/09/16 07:00:46;;;;;;;;;;;;;;;11.97;100.00;101085.13;5325069;27;20361;-79
2022/09/16 07:03:17;;;;;;;;;;;;;;;12.00;100.00;101085.66;5322344;27;19943;-79
2022/09/16 07:06:01;;;;;;;;;;;;;;;12.58;100.00;101081.03;5321663;27;20403;-79
2022/09/16 07:08:33;;;;;;;;;;;;;;;13.48;100.00;101081.09;5319529;27;20449;-79
2022/09/16 07:11:06;;;;;;;;;;;;;;;14.08;100.00;101083.03;5320404;27;20013;-79
2022/09/16 07:13:37;;;;;;;;;;;;;;;14.44;100.00;101077.47;5322143;27;19924;-79
2022/09/16 07:16:11;;;;;;;;;;;;;;;14.88;100.00;101075.47;5320937;27;19942;-79
2022/09/16 07:18:42;;;;;;;;;;;;;;;15.29;100.00;101067.44;5318947;27;20340;-80
2022/09/16 07:21:18;;;;;;;;;;;;;;;15.73;100.00;101071.59;5318726;27;19984;-80
2022/09/16 07:23:50;;;;;;;;;;;;;;;16.45;100.00;101071.56;5320479;27;19924;-80
2022/09/16 07:26:25;;;;;;;;;;;;;;;17.04;100.00;101069.41;5305498;27;20350;-80
2022/09/16 07:28:58;;;;;;;;;;;;;;;18.07;100.00;101078.75;5305260;28;20410;-80
2022/09/16 07:31:30;;;;;;;;;;;;;;;18.40;100.00;101090.00;5323308;27;19920;-80
2022/09/16 07:34:02;;;;;;;;;;;;;;;18.56;100.00;101088.13;5326101;27;19916;-80
2022/09/16 07:36:35;;;;;;;;;;;;;;;18.25;100.00;101081.06;5326106;27;20002;-80
2022/09/16 07:39:07;;;;;;;;;;;;;;;17.42;100.00;101078.34;5326162;27;19920;-79
2022/09/16 07:41:40;;;;;;;;;;;;;;;16.34;100.00;101069.28;5325650;27;19970;-79
2022/09/16 07:44:12;;;;;;;;;;;;;;;15.86;100.00;101088.06;5325994;27;19924;-79
2022/09/16 07:46:44;;;;;;;;;;;;;;;15.61;100.00;101087.22;5326167;27;20292;-79
2022/09/16 07:49:15;;;;;;;;;;;;;;;15.77;100.00;101088.25;5325173;27;19920;-79
2022/09/16 07:51:47;;;;;;;;;;;;;;;15.66;100.00;101078.66;5325968;27;20015;-79
2022/09/16 07:54:18;;;;;;;;;;;;;;;15.19;100.00;101074.81;5324373;27;19912;-79
2022/09/16 07:56:50;;;;;;;;;;;;;;;14.90;100.00;101080.63;5358000;27;20265;-80
2022/09/16 07:59:21;;;;;;;;;;;;;;;14.71;100.00;101087.16;5311386;27;20301;-79
2022/09/16 08:01:52;;;;;;;;;;;;;;;14.38;100.00;101097.75;5304696;28;20003;-80
2022/09/16 08:04:23;;;;;;;;;;;;;;;14.46;100.00;101099.59;5304708;28;20011;-79
2022/09/16 08:06:55;;;;;;;;;;;;;;;15.37;100.00;101096.13;5304138;27;19962;-80
2022/09/16 08:09:26;;;;;;;;;;;;;;;16.51;100.00;101106.88;5325482;27;19920;-80
2022/09/16 08:11:57;;;;;;;;;;;;;;;17.51;100.00;101103.41;5325370;27;19966;-80
2022/09/16 08:14:28;;;;;;;;;;;;;;;18.73;100.00;101104.97;5326114;27;19977;-80
2022/09/16 08:17:00;;;;;;;;;;;;;;;19.73;100.00;101103.25;5325672;27;20297;-80
2022/09/16 08:19:31;;;;;;;;;;;;;;;20.13;100.00;101095.44;5325935;27;19916;-80
2022/09/16 08:22:03;;;;;;;;;;;;;;;20.58;100.00;101087.72;5325066;27;19920;-80
2022/09/16 08:24:34;;;;;;;;;;;;;;;21.48;100.00;101099.25;5325690;27;19935;-80
2022/09/16 08:27:05;;;;;;;;;;;;;;;21.68;100.00;101096.50;5341761;27;20290;-80
2022/09/16 08:29:36;;;;;;;;;;;;;;;21.28;100.00;101095.63;5322350;27;19919;-80
2022/09/16 08:32:08;;;;;;;;;;;;;;;19.98;100.00;101107.19;5304239;28;19999;-80
2022/09/16 08:34:40;;;;;;;;;;;;;;;19.38;100.00;101095.88;5302867;28;20011;-80
2022/09/16 08:37:11;;;;;;;;;;;;;;;19.04;100.00;101110.13;5319007;27;19916;-80
2022/09/16 08:39:42;;;;;;;;;;;;;;;20.08;100.00;101109.56;5325081;27;19920;-80
2022/09/16 08:42:14;;;;;;;;;;;;;;;21.16;100.00;101103.56;5325454;27;19959;-80
2022/09/16 08:45:00;;;;;;;;;;;;;;;22.20;100.00;101102.06;5325140;27;19959;-80
2022/09/16 08:47:50;;;;;;;;;;;;;;;23.83;100.00;101102.63;5325168;27;19916;-80
2022/09/16 08:50:25;;;;;;;;;;;;;;;23.72;100.00;101097.88;5325334;28;19923;-80
2022/09/16 08:52:57;;;;;;;;;;;;;;;22.99;100.00;101104.69;5325295;27;19923;-80
2022/09/16 08:55:33;;;;;;;;;;;;;;;23.11;100.00;101102.97;5324543;27;19927;-80
2022/09/16 08:58:13;;;;;;;;;;;;;;;23.54;100.00;101099.50;5324709;27;20424;-80
2022/09/16 09:00:46;;;;;;;;;;;;;;;22.92;100.00;101103.91;5324519;27;19974;-80
2022/09/16 09:03:23;;;;;;;;;;;;;;;22.91;100.00;101102.22;5325168;27;19916;-80
2022/09/16 09:05:55;;;;;;;;;;;;;;;22.14;100.00;101102.91;5324259;27;20007;-80
2022/09/16 09:08:43;;;;;;;;;;;;;;;21.97;100.00;101105.25;5323760;27;21184;-80
2022/09/16 09:11:17;;;;;;;;;;;;;;;22.14;100.00;101096.66;5324891;27;19916;-80
2022/09/16 09:14:08;;;;;;;;;;;;;;;22.23;100.00;101098.06;5325518;27;19920;-80
2022/09/16 09:16:44;;;;;;;;;;;;;;;22.20;100.00;101093.91;5324253;28;19912;-80
2022/09/16 09:19:23;;;;;;;;;;;;;;;21.85;100.00;101102.34;5324987;28;19999;-80
2022/09/16 09:22:13;;;;;;;;;;;;;;;20.75;100.00;101091.78;5327682;27;20380;-80
2022/09/16 09:24:59;;;;;;;;;;;;;;;19.91;100.00;101102.78;5306613;28;19920;-80
2022/09/16 09:27:51;;;;;;;;;;;;;;;19.93;100.00;101093.44;5306783;28;20296;-79
2022/09/16 09:30:24;;;;;;;;;;;;;;;20.80;100.00;101098.47;5306905;28;20220;-80
2022/09/16 09:33:14;;;;;;;;;;;;;;;21.86;100.00;101101.31;5306878;28;19916;-79
2022/09/16 09:35:51;;;;;;;;;;;;;;;21.97;100.00;101099.84;5309547;28;19916;-80
2022/09/16 09:38:37;;;;;;;;;;;;;;;23.31;100.00;101102.00;5320430;27;20411;-80
2022/09/16 09:41:15;;;;;;;;;;;;;;;24.92;100.00;101096.56;5351049;27;19920;-80
2022/09/16 09:44:05;;;;;;;;;;;;;;;26.40;100.00;101092.97;5329121;27;19924;-80
2022/09/16 09:46:39;;;;;;;;;;;;;;;26.91;100.00;101098.66;5332872;27;20513;-80
2022/09/16 09:49:10;;;;;;;;;;;;;;;27.22;100.00;101091.00;5331145;27;19970;-80
2022/09/16 09:51:49;;;;;;;;;;;;;;;26.34;100.00;101089.31;5331091;27;20006;-81
2022/09/16 09:54:28;;;;;;;;;;;;;;;25.08;100.00;101086.88;5326159;27;19924;-80
2022/09/16 09:57:02;;;;;;;;;;;;;;;24.22;100.00;101081.47;5332232;27;19992;-80
2022/09/16 09:59:34;;;;;;;;;;;;;;;23.64;100.00;101098.19;5316744;27;19924;-80
2022/09/16 10:02:16;;;;;;;;;;;;;;;22.61;100.00;101108.22;5325645;27;19920;-80
2022/09/16 10:04:47;;;;;;;;;;;;;;;21.32;100.00;101115.91;5324669;27;19928;-80
2022/09/16 10:07:20;;;;;;;;;;;;;;;20.00;100.00;101137.66;5361309;27;19922;-81
2022/09/16 10:09:56;;;;;;;;;;;;;;;18.60;100.00;101148.84;5326559;27;19982;-80
2022/09/16 10:12:33;;;;;;;;;;;;;;;16.58;100.00;101134.78;5325223;27;19932;-81
2022/09/16 10:15:05;;;;;;;;;;;;;;;14.98;100.00;101139.75;5352004;27;20288;-81
2022/09/16 10:17:36;;;;;;;;;;;;;;;14.00;100.00;101140.94;5327036;27;19916;-81
2022/09/16 10:20:37;;;;;;;;;;;;;;;13.32;100.00;101128.19;5321871;27;19920;-80
2022/09/16 10:23:13;;;;;;;;;;;;;;;12.99;100.00;101118.97;5318042;27;19981;-80
2022/09/16 10:25:44;;;;;;;;;;;;;;;12.81;100.00;101117.09;5317489;27;19927;-80
2022/09/16 10:28:23;;;;;;;;;;;;;;;12.78;100.00;101113.88;5322503;27;19924;-80
2022/09/16 10:30:57;;;;;;;;;;;;;;;12.88;100.00;101111.16;5325636;27;19948;-80
2022/09/16 10:33:28;;;;;;;;;;;;;;;13.08;100.00;101117.19;5323826;27;19978;-79
2022/09/16 10:36:01;;;;;;;;;;;;;;;13.26;100.00;101125.28;5319954;27;19920;-80
2022/09/16 10:38:36;;;;;;;;;;;;;;;13.28;100.00;101123.28;5326774;27;19920;-79
2022/09/16 10:41:13;;;;;;;;;;;;;;;13.35;100.00;101125.19;5325723;27;19938;-80
2022/09/16 10:43:52;;;;;;;;;;;;;;;13.52;100.00;101117.31;5323321;27;20376;-79
2022/09/16 10:46:24;;;;;;;;;;;;;;;13.83;100.00;101127.59;5320246;27;19932;-79
2022/09/16 10:49:11;;;;;;;;;;;;;;;15.83;100.00;101134.16;5332193;27;20338;-80
2022/09/16 10:51:43;;;;;;;;;;;;;;;20.34;100.00;101127.84;5324845;27;19985;-80
2022/09/16 10:54:22;;;;;;;;;;;;;;;21.03;100.00;101117.09;5310258;27;19924;-80
2022/09/16 10:56:54;;;;;;;;;;;;;;;20.12;100.00;101107.28;5324240;27;19973;-79
2022/09/16 10:59:25;;;;;;;;;;;;;;;18.78;100.00;101108.78;5322703;27;20407;-80
2022/09/16 11:02:16;;;;;;;;;;;;;;;17.99;100.00;101112.09;5324699;27;19998;-80
2022/09/16 11:04:47;;;;;;;;;;;;;;;17.33;100.00;101106.41;5319220;27;19944;-80
2022/09/16 11:07:19;;;;;;;;;;;;;;;17.11;100.00;101111.63;5322392;27;19916;-80
2022/09/16 11:09:58;;;;;;;;;;;;;;;16.89;100.00;101120.53;5323671;27;20030;-79
2022/09/16 11:12:38;;;;;;;;;;;;;;;16.43;100.00;101113.16;5317802;27;19916;-79
2022/09/16 11:15:28;;;;;;;;;;;;;;;16.01;100.00;101120.50;5314453;27;19970;-79
2022/09/16 11:17:59;;;;;;;;;;;;;;;15.85;100.00;101117.84;5322152;27;20006;-79
2022/09/16 11:20:45;;;;;;;;;;;;;;;15.92;100.00;101123.34;5327661;27;20030;-79
2022/09/16 11:23:16;;;;;;;;;;;;;;;16.13;100.00;101114.72;5324693;27;20026;-79
2022/09/16 11:26:06;;;;;;;;;;;;;;;16.40;100.00;101119.69;5323865;27;20136;-79
2022/09/16 11:28:52;;;;;;;;;;;;;;;18.12;100.00;101112.25;5324246;27;20429;-79
2022/09/16 11:31:34;;;;;;;;;;;;;;;20.64;100.00;101111.34;5323034;27;19927;-79
2022/09/16 11:34:18;;;;;;;;;;;;;;;23.92;100.00;101114.06;5307558;28;20341;-80
2022/09/16 11:37:05;;;;;;;;;;;;;;;25.84;100.00;101114.41;5325408;27;20257;-79
2022/09/16 11:39:52;;;;;;;;;;;;;;;27.68;100.00;101120.00;5324969;27;19920;-80
2022/09/16 11:42:23;;;;;;;;;;;;;;;29.27;100.00;101128.63;5325075;27;19960;-80
2022/09/16 11:45:03;;;;;;;;;;;;;;;31.02;100.00;101119.47;5324517;27;19979;-80
2022/09/16 11:48:04;;;;;;;;;;;;;;;30.76;97.75;101137.81;5324262;27;20335;-80
2022/09/16 11:50:54;;;;;;;;;;;;;;;29.15;92.48;101134.25;5322324;27;19919;-80
2022/09/16 11:53:31;;;;;;;;;;;;;;;27.59;100.00;101135.19;5326051;28;19941;-80
2022/09/16 11:56:25;;;;;;;;;;;;;;;25.51;100.00;101123.19;5325831;27;19970;-80
2022/09/16 11:59:04;;;;;;;;;;;;;;;24.00;100.00;101127.41;5319043;27;19955;-79
2022/09/16 12:01:43;;;;;;;;;;;;;;;22.99;100.00;101134.63;5324078;27;19920;-79
2022/09/16 12:04:19;;;;;;;;;;;;;;;21.95;100.00;101128.22;5325618;28;19952;-79
2022/09/16 12:06:54;;;;;;;;;;;;;;;21.08;100.00;101129.00;5325249;27;20388;-79
2022/09/16 12:09:35;;;;;;;;;;;;;;;20.41;100.00;101127.88;5322685;27;20021;-79
2022/09/16 12:12:15;;;;;;;;;;;;;;;19.70;100.00;101128.00;5309976;27;19924;-79
2022/09/16 12:14:50;;;;;;;;;;;;;;;19.34;100.00;101134.34;5324142;27;19920;-79
2022/09/16 12:17:30;;;;;;;;;;;;;;;19.70;100.00;101128.00;5325367;27;20022;-79
2022/09/16 12:20:15;;;;;;;;;;;;;;;21.34;100.00;101122.78;5325014;27;19926;-79
2022/09/16 12:22:49;;;;;;;;;;;;;;;22.42;100.00;101132.56;5325376;27;19923;-79
2022/09/16 12:25:26;;;;;;;;;;;;;;;23.84;100.00;101123.34;5325844;27;20293;-80
2022/09/16 12:27:57;;;;;;;;;;;;;;;23.49;100.00;101125.72;5325479;27;20247;-80
2022/09/16 12:30:45;;;;;;;;;;;;;;;23.30;100.00;101125.66;5323310;27;19916;-79
2022/09/16 12:33:33;;;;;;;;;;;;;;;24.48;100.00;101131.28;5324062;28;19916;-80
2022/09/16 12:36:11;;;;;;;;;;;;;;;24.25;100.00;101131.97;5324693;27;19931;-79
2022/09/16 12:38:42;;;;;;;;;;;;;;;23.21;100.00;101130.53;5323041;27;19981;-79
2022/09/16 12:41:16;;;;;;;;;;;;;;;21.98;100.00;101134.06;5325231;27;19912;-79
2022/09/16 12:44:05;;;;;;;;;;;;;;;20.78;100.00;101142.03;5325099;27;19924;-79
2022/09/16 12:46:42;;;;;;;;;;;;;;;19.51;100.00;101160.09;5324907;27;19916;-79
2022/09/16 12:49:26;;;;;;;;;;;;;;;18.50;100.00;101159.97;5324477;27;19915;-80
2022/09/16 12:52:08;;;;;;;;;;;;;;;17.34;100.00;101164.72;5303787;28;20066;-80
2022/09/16 12:54:51;;;;;;;;;;;;;;;16.54;100.00;101155.81;5303560;28;19962;-80
2022/09/16 12:57:22;;;;;;;;;;;;;;;15.94;100.00;101154.47;5322773;28;20488;-80
2022/09/16 12:59:56;;;;;;;;;;;;;;;15.81;100.00;101148.75;5317245;27;20014;-80
2022/09/16 13:02:43;;;;;;;;;;;;;;;15.76;100.00;101154.66;5328652;27;19918;-80
2022/09/16 13:05:17;;;;;;;;;;;;;;;15.58;100.00;101154.78;5328748;27;20372;-80
2022/09/16 13:07:50;;;;;;;;;;;;;;;15.37;100.00;101170.56;5329664;27;19916;-79
2022/09/16 13:10:22;;;;;;;;;;;;;;;15.07;100.00;101172.84;5322075;27;19952;-79
2022/09/16 13:12:55;;;;;;;;;;;;;;;14.65;100.00;101174.53;5333690;27;19920;-80